Terminal Aerodrome Forecast
Issued by NWS

Home | Current Version | Previous Version | Graphics & Text | Print | Product List | Glossary On
Versions: 1 2 3 4 5 6 7 8 9 10 11 12 13 14 15 16 17 18 19 20 21 22 23 24 25 26 27 28 29
000
FTUS45 KGGW 301100 RRA
TAFOLF
TAF
KOLF 301145Z 3012/3112 13005KT P6SM SCT130
     FM301400 08011KT P6SM VCTS SCT050CB BKN120
     FM301900 32008KT P6SM VCTS SCT040CB OVC090
     FM302300 VRB03KT P6SM BKN200=

USA.gov is the U.S. government's official web portal to all federal, state and local government web resources and services.